Time;durP1;ratioP1;P1;durP2;ratioP2;P2;SDS_P1;SDS_P2;PMS_P1;PMS_P2;Temp;Humidity;BMP_temperature;BMP_pressure;BME280_temperature;BME280_humidity;BME280_pressure;Samples;Min_cycle;Max_cycle;Signal;HPM_P1;HPM_P2
2021/09/19 00:01:30;;;;;;;10.40;9.15;;;16.50;99.90;;;;;;4986367;28;25083;-75
2021/09/19 00:03:56;;;;;;;9.63;8.50;;;16.50;99.90;;;;;;4983039;28;25086;-74
2021/09/19 00:06:21;;;;;;;12.05;8.77;;;16.50;99.90;;;;;;4995359;28;25146;-74
2021/09/19 00:08:47;;;;;;;11.25;8.95;;;16.40;99.90;;;;;;4987012;28;25066;-75
2021/09/19 00:11:13;;;;;;;11.02;9.93;;;16.30;99.90;;;;;;4992493;28;25097;-75
2021/09/19 00:13:38;;;;;;;10.98;9.98;;;16.20;99.90;;;;;;4994220;28;25065;-73
2021/09/19 00:16:04;;;;;;;11.75;10.13;;;16.20;99.90;;;;;;4987824;28;25075;-75
2021/09/19 00:18:30;;;;;;;12.55;10.43;;;16.20;99.90;;;;;;4989049;28;25067;-75
2021/09/19 00:20:55;;;;;;;14.55;11.02;;;16.10;99.90;;;;;;4991384;28;25095;-76
2021/09/19 00:23:21;;;;;;;12.57;10.88;;;16.00;99.90;;;;;;4990841;28;25059;-76
2021/09/19 00:25:47;;;;;;;12.23;10.93;;;16.10;99.90;;;;;;4985846;28;25067;-75
2021/09/19 00:28:12;;;;;;;13.77;11.07;;;16.10;99.90;;;;;;4989094;28;25075;-74
2021/09/19 00:30:38;;;;;;;12.90;10.82;;;16.00;99.90;;;;;;4979205;28;25083;-76
2021/09/19 00:33:03;;;;;;;11.30;10.10;;;16.00;99.90;;;;;;4990491;28;25059;-75
2021/09/19 00:35:29;;;;;;;12.50;11.20;;;16.00;99.90;;;;;;4982991;28;25071;-75
2021/09/19 00:37:55;;;;;;;14.27;11.32;;;15.80;99.90;;;;;;4988799;28;25104;-75
2021/09/19 00:40:22;;;;;;;12.07;10.82;;;15.70;99.90;;;;;;4990866;28;25177;-74
2021/09/19 00:42:48;;;;;;;13.05;10.90;;;15.60;99.90;;;;;;4992755;28;25065;-74
2021/09/19 00:45:15;;;;;;;14.07;12.05;;;15.50;99.90;;;;;;4989637;28;25059;-75
2021/09/19 00:47:41;;;;;;;14.50;10.25;;;15.40;99.90;;;;;;4985958;28;25074;-75
2021/09/19 00:50:11;;;;;;;12.38;10.82;;;15.40;99.90;;;;;;4984591;28;25055;-75
2021/09/19 00:52:39;;;;;;;12.63;11.32;;;15.40;99.90;;;;;;4990692;28;25093;-74
2021/09/19 00:55:07;;;;;;;12.57;11.27;;;15.30;99.90;;;;;;5014064;28;25163;-74
2021/09/19 00:57:39;;;;;;;13.35;10.93;;;15.30;99.90;;;;;;5004003;28;25074;-76
2021/09/19 01:00:08;;;;;;;12.65;11.43;;;15.30;99.90;;;;;;4990471;28;25060;-76
2021/09/19 01:02:34;;;;;;;13.02;11.38;;;15.20;99.90;;;;;;4991207;28;25114;-77
2021/09/19 01:05:01;;;;;;;11.70;10.50;;;15.20;99.90;;;;;;4999068;28;25066;-74
2021/09/19 01:07:27;;;;;;;12.32;10.77;;;15.20;99.90;;;;;;4987702;28;25087;-76
2021/09/19 01:09:53;;;;;;;11.95;10.68;;;15.20;99.90;;;;;;4988280;28;25101;-77
2021/09/19 01:12:23;;;;;;;14.40;12.20;;;15.30;99.90;;;;;;4988928;28;25082;-75
2021/09/19 01:14:49;;;;;;;13.05;11.50;;;15.20;99.90;;;;;;4996264;28;25055;-75
2021/09/19 01:17:16;;;;;;;13.88;11.75;;;15.20;99.90;;;;;;4996880;28;25052;-77
2021/09/19 01:19:44;;;;;;;14.00;10.40;;;15.30;99.90;;;;;;5000229;28;25056;-75
2021/09/19 01:22:12;;;;;;;12.80;11.50;;;15.20;99.90;;;;;;5007442;28;25056;-75
2021/09/19 01:24:38;;;;;;;14.23;10.98;;;15.10;99.90;;;;;;5004426;28;25059;-74
2021/09/19 01:27:04;;;;;;;13.50;11.15;;;15.00;99.90;;;;;;4994304;28;25094;-74
2021/09/19 01:29:31;;;;;;;14.30;11.27;;;14.90;99.90;;;;;;5002677;28;25062;-75
2021/09/19 01:31:57;;;;;;;12.20;10.95;;;14.80;99.90;;;;;;5000384;28;25093;-77
2021/09/19 01:34:26;;;;;;;12.38;11.07;;;14.90;99.90;;;;;;5005474;28;25078;-74
2021/09/19 01:36:53;;;;;;;12.27;11.05;;;14.80;99.90;;;;;;5000938;28;25084;-73
2021/09/19 01:39:19;;;;;;;12.10;10.88;;;14.80;99.90;;;;;;5020909;28;25067;-76
2021/09/19 01:41:45;;;;;;;13.68;10.95;;;14.80;99.90;;;;;;5006167;28;25132;-74
2021/09/19 01:44:11;;;;;;;12.13;10.90;;;14.90;99.90;;;;;;5002605;28;25105;-77
2021/09/19 01:46:37;;;;;;;13.80;11.32;;;14.80;99.90;;;;;;5004632;28;25076;-77
2021/09/19 01:49:07;;;;;;;13.77;10.45;;;14.80;99.90;;;;;;5006181;28;25067;-75
2021/09/19 01:51:34;;;;;;;12.25;10.85;;;14.80;99.90;;;;;;5025620;28;25038;-77
2021/09/19 01:54:01;;;;;;;13.38;10.63;;;14.80;99.90;;;;;;5024663;28;25115;-77
2021/09/19 01:56:26;;;;;;;14.15;11.40;;;14.80;99.90;;;;;;5009672;28;25058;-76
2021/09/19 01:58:54;;;;;;;12.23;10.93;;;14.80;99.90;;;;;;5008743;28;25074;-76
2021/09/19 02:01:24;;;;;;;13.18;11.77;;;14.70;99.90;;;;;;5018611;28;25062;-78
2021/09/19 02:03:52;;;;;;;13.00;11.40;;;14.60;99.90;;;;;;5006272;28;25098;-75
2021/09/19 02:06:17;;;;;;;12.27;11.05;;;14.60;99.90;;;;;;5003411;28;25085;-76
2021/09/19 02:08:43;;;;;;;13.75;12.35;;;14.60;99.90;;;;;;4996521;28;25097;-75
2021/09/19 02:11:12;;;;;;;12.18;10.93;;;14.60;99.90;;;;;;4997184;28;25072;-76
2021/09/19 02:13:39;;;;;;;13.25;10.73;;;14.60;99.90;;;;;;4998482;28;25163;-76
2021/09/19 02:16:07;;;;;;;12.63;11.32;;;14.70;99.90;;;;;;5000828;28;25093;-76
2021/09/19 02:18:34;;;;;;;13.30;10.38;;;14.60;99.90;;;;;;5014233;28;25160;-75
2021/09/19 02:21:01;;;;;;;12.23;9.90;;;14.80;99.90;;;;;;4999397;28;25068;-76
2021/09/19 02:23:29;;;;;;;13.18;10.30;;;14.90;99.90;;;;;;4989207;28;25071;-75
2021/09/19 02:25:55;;;;;;;12.02;10.82;;;14.90;99.90;;;;;;5013336;28;25060;-76
2021/09/19 02:28:21;;;;;;;15.43;11.23;;;14.80;99.90;;;;;;4992224;28;25063;-75
2021/09/19 02:30:47;;;;;;;13.60;11.57;;;14.70;99.90;;;;;;4993527;28;25062;-75
2021/09/19 02:33:13;;;;;;;13.82;12.23;;;14.60;99.90;;;;;;4995489;28;25063;-76
2021/09/19 02:35:39;;;;;;;11.35;10.20;;;14.60;99.90;;;;;;4995359;28;25062;-76
2021/09/19 02:38:05;;;;;;;13.15;11.68;;;14.60;99.90;;;;;;4999148;28;25070;-75
2021/09/19 02:40:31;;;;;;;14.35;11.57;;;14.70;99.90;;;;;;5022647;28;25086;-75
2021/09/19 02:42:57;;;;;;;14.32;11.90;;;14.70;99.90;;;;;;4994793;28;25076;-75
2021/09/19 02:45:23;;;;;;;12.45;11.35;;;14.60;99.90;;;;;;4990497;28;25067;-75
2021/09/19 02:47:49;;;;;;;15.93;11.88;;;14.60;99.90;;;;;;4998283;28;25064;-73
2021/09/19 02:50:19;;;;;;;13.40;11.30;;;14.60;99.90;;;;;;4994381;28;25147;-78
2021/09/19 02:52:45;;;;;;;13.18;11.88;;;14.60;99.90;;;;;;5009425;28;25050;-76
2021/09/19 02:55:12;;;;;;;14.38;11.98;;;14.50;99.90;;;;;;4994728;28;25105;-75
2021/09/19 02:57:37;;;;;;;15.73;13.05;;;14.50;99.90;;;;;;5009062;28;25081;-74
2021/09/19 03:00:06;;;;;;;14.07;12.23;;;14.50;99.90;;;;;;5005345;28;25094;-76
2021/09/19 03:02:31;;;;;;;12.73;11.43;;;14.50;99.90;;;;;;4997317;28;25152;-73
2021/09/19 03:04:57;;;;;;;13.50;12.13;;;14.50;99.90;;;;;;4993868;28;25112;-75
2021/09/19 03:07:22;;;;;;;15.25;13.45;;;14.50;99.90;;;;;;4991239;28;25067;-74
2021/09/19 03:09:48;;;;;;;15.00;12.45;;;14.40;99.90;;;;;;4996541;28;25060;-77
2021/09/19 03:12:13;;;;;;;18.63;14.00;;;14.40;99.90;;;;;;5005463;28;25048;-76
2021/09/19 03:14:39;;;;;;;14.18;12.77;;;14.40;99.90;;;;;;5005303;28;25142;-76
2021/09/19 03:17:05;;;;;;;15.95;14.25;;;14.40;99.90;;;;;;4996386;28;25097;-74
2021/09/19 03:19:30;;;;;;;14.60;13.10;;;14.30;99.90;;;;;;4993612;28;25064;-75
2021/09/19 03:21:56;;;;;;;15.93;14.13;;;14.40;99.90;;;;;;5002849;28;25106;-75
2021/09/19 03:24:21;;;;;;;16.05;14.45;;;14.40;99.90;;;;;;4995658;28;25074;-75
2021/09/19 03:26:47;;;;;;;19.38;15.45;;;14.30;99.90;;;;;;4992869;28;25102;-76
2021/09/19 03:29:13;;;;;;;17.52;15.75;;;14.10;99.90;;;;;;4998943;28;25105;-76
2021/09/19 03:31:38;;;;;;;16.55;14.93;;;13.90;99.90;;;;;;4996860;28;25140;-74
2021/09/19 03:34:05;;;;;;;16.67;14.68;;;13.80;99.90;;;;;;4990315;28;25086;-74
2021/09/19 03:36:30;;;;;;;16.33;14.60;;;13.90;99.90;;;;;;4990789;28;25070;-74
2021/09/19 03:38:56;;;;;;;17.40;15.65;;;14.00;99.90;;;;;;4986473;28;25080;-76
2021/09/19 03:41:21;;;;;;;16.67;14.88;;;13.90;99.90;;;;;;4999823;28;25065;-75
2021/09/19 03:43:47;;;;;;;16.10;14.45;;;13.90;99.90;;;;;;4999229;28;25060;-76
2021/09/19 03:46:13;;;;;;;17.23;15.52;;;14.00;99.90;;;;;;5003033;28;25059;-76
2021/09/19 03:48:38;;;;;;;17.33;15.63;;;14.00;99.90;;;;;;4992575;28;25081;-77
2021/09/19 03:51:04;;;;;;;15.88;14.27;;;14.10;99.90;;;;;;4992979;28;25093;-76
2021/09/19 03:53:30;;;;;;;17.13;14.77;;;14.20;99.90;;;;;;4992488;28;25155;-73
2021/09/19 03:55:56;;;;;;;18.02;15.70;;;14.30;99.90;;;;;;4991276;28;25065;-75
2021/09/19 03:58:22;;;;;;;15.98;13.65;;;14.10;99.90;;;;;;4983038;28;25081;-75
2021/09/19 04:00:48;;;;;;;16.05;14.45;;;14.10;99.90;;;;;;4994627;28;25060;-76
2021/09/19 04:03:13;;;;;;;15.40;13.90;;;14.10;99.90;;;;;;4994776;28;25096;-76
2021/09/19 04:05:39;;;;;;;17.10;15.40;;;14.20;99.90;;;;;;4989959;28;25146;-76
2021/09/19 04:08:06;;;;;;;18.38;16.30;;;14.30;99.90;;;;;;5010242;28;25062;-76
2021/09/19 04:10:41;;;;;;;17.30;15.50;;;14.20;99.90;;;;;;4999349;28;25048;-77
2021/09/19 04:13:07;;;;;;;19.40;16.55;;;14.10;99.90;;;;;;5026932;28;25051;-75
2021/09/19 04:15:47;;;;;;;18.88;16.95;;;14.00;99.90;;;;;;5005011;28;25110;-77
2021/09/19 04:18:14;;;;;;;20.08;17.48;;;13.90;99.90;;;;;;5009407;28;25143;-75
2021/09/19 04:20:42;;;;;;;18.60;16.23;;;13.80;99.90;;;;;;4986483;28;25097;-75
2021/09/19 04:23:09;;;;;;;18.00;16.10;;;13.90;99.90;;;;;;4986936;28;25068;-76
2021/09/19 04:25:34;;;;;;;22.35;16.83;;;13.90;99.90;;;;;;4987828;28;25058;-76
2021/09/19 04:28:00;;;;;;;18.52;16.73;;;13.90;99.90;;;;;;4991336;28;25041;-75
2021/09/19 04:30:26;;;;;;;19.15;17.23;;;13.90;99.90;;;;;;4987479;28;25064;-75
2021/09/19 04:32:51;;;;;;;18.48;16.55;;;13.80;99.90;;;;;;4991129;28;25066;-78
2021/09/19 04:35:17;;;;;;;18.77;16.65;;;13.80;99.90;;;;;;4982235;28;25060;-75
2021/09/19 04:37:43;;;;;;;23.17;17.75;;;13.90;99.90;;;;;;4985760;28;25076;-75
2021/09/19 04:40:09;;;;;;;18.65;16.85;;;13.80;99.90;;;;;;4978623;28;25060;-76
2021/09/19 04:42:35;;;;;;;19.50;17.50;;;13.80;99.90;;;;;;4998789;28;25084;-75
2021/09/19 04:45:00;;;;;;;22.90;18.48;;;13.70;99.90;;;;;;4982484;28;25097;-74
2021/09/19 04:47:26;;;;;;;21.23;18.98;;;13.70;99.90;;;;;;4984041;28;25151;-76
2021/09/19 04:49:52;;;;;;;28.00;18.33;;;13.70;99.90;;;;;;4979693;28;25062;-75
2021/09/19 04:52:18;;;;;;;20.08;17.98;;;13.70;99.90;;;;;;4979185;28;25114;-76
2021/09/19 04:54:44;;;;;;;19.67;17.20;;;13.70;99.90;;;;;;4977288;28;25079;-76
2021/09/19 04:57:10;;;;;;;20.10;17.20;;;13.80;99.90;;;;;;4987897;28;25070;-75
2021/09/19 04:59:35;;;;;;;19.25;16.33;;;13.80;99.90;;;;;;4987651;28;25068;-76
2021/09/19 05:02:05;;;;;;;23.52;19.58;;;13.90;99.90;;;;;;4978861;28;25078;-75
2021/09/19 05:04:31;;;;;;;22.08;19.98;;;13.80;99.90;;;;;;4982592;28;25075;-75
2021/09/19 05:06:56;;;;;;;19.60;17.63;;;13.70;99.90;;;;;;4990285;28;25091;-75
2021/09/19 05:09:22;;;;;;;18.85;16.80;;;13.60;99.90;;;;;;4983147;28;25111;-75
2021/09/19 05:11:48;;;;;;;19.45;17.48;;;13.70;99.90;;;;;;5007888;28;25058;-76
2021/09/19 05:14:13;;;;;;;19.35;17.35;;;13.80;99.90;;;;;;4991164;28;25069;-76
2021/09/19 05:16:39;;;;;;;20.33;18.23;;;13.80;99.90;;;;;;4991371;28;25069;-76
2021/09/19 05:19:06;;;;;;;20.45;18.45;;;13.80;99.90;;;;;;4998825;28;25073;-76
2021/09/19 05:21:32;;;;;;;19.63;17.48;;;13.80;99.90;;;;;;4993967;28;25073;-74
2021/09/19 05:23:58;;;;;;;19.67;17.33;;;13.80;99.90;;;;;;4995723;28;25062;-76
2021/09/19 05:26:24;;;;;;;18.63;16.63;;;13.90;99.90;;;;;;4993435;28;25088;-75
2021/09/19 05:28:49;;;;;;;18.92;15.25;;;14.00;99.90;;;;;;4993584;28;25064;-76
2021/09/19 05:31:15;;;;;;;20.10;16.30;;;14.00;99.90;;;;;;4987441;28;25139;-74
2021/09/19 05:33:41;;;;;;;21.20;18.92;;;14.10;99.90;;;;;;4987751;28;25061;-73
2021/09/19 05:36:07;;;;;;;19.42;17.50;;;14.00;99.90;;;;;;4996520;28;25107;-75
2021/09/19 05:38:33;;;;;;;19.83;17.70;;;14.00;99.90;;;;;;4995093;28;25137;-76
2021/09/19 05:40:59;;;;;;;23.50;20.55;;;14.00;99.90;;;;;;4989131;28;25080;-74
2021/09/19 05:43:24;;;;;;;20.42;18.38;;;14.00;99.90;;;;;;4989285;28;25083;-75
2021/09/19 05:45:50;;;;;;;20.80;18.67;;;13.90;99.90;;;;;;4994717;28;25108;-75
2021/09/19 05:48:16;;;;;;;20.42;18.08;;;13.90;99.90;;;;;;4994702;28;25060;-75
2021/09/19 05:50:41;;;;;;;21.05;18.92;;;13.90;99.90;;;;;;4983838;28;25059;-75
2021/09/19 05:53:07;;;;;;;23.27;18.40;;;14.00;99.90;;;;;;5005849;28;25074;-75
2021/09/19 05:55:33;;;;;;;18.65;16.70;;;14.00;99.90;;;;;;4991895;28;25085;-76
2021/09/19 05:57:58;;;;;;;19.30;17.40;;;14.10;99.90;;;;;;4980271;28;25055;-75
2021/09/19 06:00:24;;;;;;;22.10;17.92;;;14.10;99.90;;;;;;4986238;28;25058;-76
2021/09/19 06:02:50;;;;;;;19.95;17.85;;;14.10;99.90;;;;;;4992253;28;25091;-76
2021/09/19 06:05:16;;;;;;;21.13;18.88;;;14.10;99.90;;;;;;4987469;28;25128;-75
2021/09/19 06:07:42;;;;;;;19.60;17.58;;;14.10;99.90;;;;;;4993195;28;25066;-76
2021/09/19 06:10:08;;;;;;;17.88;16.08;;;14.00;99.90;;;;;;5004218;28;25080;-73
2021/09/19 06:12:34;;;;;;;19.70;17.60;;;14.10;99.90;;;;;;4985783;28;25130;-74
2021/09/19 06:14:59;;;;;;;21.65;18.77;;;14.10;99.90;;;;;;4989479;28;25067;-74
2021/09/19 06:17:25;;;;;;;20.48;18.33;;;14.10;99.90;;;;;;4984518;28;25099;-75
2021/09/19 06:19:51;;;;;;;19.27;17.35;;;14.10;99.90;;;;;;4988984;28;25056;-74
2021/09/19 06:22:18;;;;;;;22.17;18.63;;;14.20;99.90;;;;;;4986596;28;25067;-76
2021/09/19 06:24:44;;;;;;;20.23;18.25;;;14.20;99.90;;;;;;4987265;28;25064;-75
2021/09/19 06:27:14;;;;;;;18.80;16.33;;;14.20;99.90;;;;;;4994054;28;25142;-74
2021/09/19 06:29:41;;;;;;;18.70;16.73;;;14.20;99.90;;;;;;4993592;28;25157;-74
2021/09/19 06:32:10;;;;;;;18.58;16.50;;;14.30;99.90;;;;;;4986991;28;25069;-74
2021/09/19 06:34:40;;;;;;;19.15;17.25;;;14.30;99.90;;;;;;4996967;28;25146;-76
2021/09/19 06:37:07;;;;;;;19.17;17.00;;;14.30;99.90;;;;;;4993931;28;25069;-75
2021/09/19 06:39:33;;;;;;;19.20;17.30;;;14.40;99.90;;;;;;4995787;28;25063;-76
2021/09/19 06:41:59;;;;;;;19.20;16.63;;;14.50;99.90;;;;;;4992941;28;25083;-76
2021/09/19 06:44:25;;;;;;;17.23;15.52;;;14.60;99.90;;;;;;5007094;28;25067;-74
2021/09/19 06:46:53;;;;;;;17.58;15.77;;;14.60;99.90;;;;;;5004996;28;25059;-73
2021/09/19 06:49:20;;;;;;;20.30;14.77;;;14.60;99.90;;;;;;4987213;28;25050;-72
2021/09/19 06:51:46;;;;;;;17.13;15.43;;;14.60;99.90;;;;;;4991802;28;25078;-73
2021/09/19 06:54:11;;;;;;;16.48;14.85;;;14.70;99.90;;;;;;4991690;28;25060;-74
2021/09/19 06:56:37;;;;;;;16.25;14.63;;;14.80;99.90;;;;;;4991742;28;25067;-75
2021/09/19 06:59:03;;;;;;;16.58;14.88;;;14.90;99.90;;;;;;4991745;28;25072;-72
2021/09/19 07:01:28;;;;;;;16.00;13.43;;;14.90;99.90;;;;;;5017580;28;25063;-74
2021/09/19 07:03:54;;;;;;;15.75;14.15;;;14.90;99.90;;;;;;4998398;28;25084;-74
2021/09/19 07:06:19;;;;;;;16.15;14.25;;;14.90;99.90;;;;;;4988892;28;25050;-73
2021/09/19 07:08:45;;;;;;;18.60;14.85;;;14.80;99.90;;;;;;4999433;28;25068;-72
2021/09/19 07:11:12;;;;;;;18.00;15.25;;;14.80;99.90;;;;;;4992111;28;25070;-75
2021/09/19 07:13:39;;;;;;;14.52;13.15;;;14.80;99.90;;;;;;5004896;28;25058;-73
2021/09/19 07:16:06;;;;;;;15.57;13.88;;;14.90;99.90;;;;;;4991669;28;25062;-76
2021/09/19 07:18:32;;;;;;;15.20;13.73;;;15.00;99.90;;;;;;4996152;28;25152;-75
2021/09/19 07:20:58;;;;;;;15.38;13.27;;;15.00;99.90;;;;;;4986533;28;25071;-76
2021/09/19 07:23:24;;;;;;;14.05;12.65;;;15.10;99.90;;;;;;4989872;28;25050;-73
2021/09/19 07:25:51;;;;;;;14.80;13.30;;;15.10;99.90;;;;;;4981361;28;25046;-73
2021/09/19 07:28:17;;;;;;;18.60;13.80;;;15.20;99.90;;;;;;4982065;28;25059;-74
2021/09/19 07:30:43;;;;;;;14.20;12.90;;;15.20;99.90;;;;;;4987882;28;25068;-74
2021/09/19 07:33:10;;;;;;;15.55;13.15;;;15.30;99.90;;;;;;4987472;28;25080;-74
2021/09/19 07:35:36;;;;;;;15.00;12.85;;;15.40;99.90;;;;;;4986325;28;25074;-73
2021/09/19 07:38:03;;;;;;;13.23;11.82;;;15.40;99.90;;;;;;4984433;28;25062;-74
2021/09/19 07:40:29;;;;;;;14.00;12.60;;;15.40;99.90;;;;;;4983474;28;25081;-74
2021/09/19 07:42:57;;;;;;;12.63;11.35;;;15.50;99.90;;;;;;4980267;28;25156;-74
2021/09/19 07:45:23;;;;;;;12.95;11.63;;;15.50;99.90;;;;;;4981133;28;25092;-73
2021/09/19 07:47:49;;;;;;;13.52;10.95;;;15.50;99.90;;;;;;4977194;28;25062;-72
2021/09/19 07:50:15;;;;;;;15.48;10.95;;;15.40;99.90;;;;;;4989872;28;25165;-73
2021/09/19 07:52:41;;;;;;;13.98;10.75;;;15.50;99.90;;;;;;4990719;28;25084;-76
2021/09/19 07:55:07;;;;;;;12.93;10.57;;;15.60;99.90;;;;;;4988010;28;25121;-72
2021/09/19 07:57:33;;;;;;;13.60;10.50;;;15.70;99.90;;;;;;4990345;28;25081;-72
2021/09/19 07:59:58;;;;;;;11.25;10.15;;;15.70;99.90;;;;;;4997410;28;25067;-74
2021/09/19 08:02:24;;;;;;;10.48;9.38;;;15.70;99.90;;;;;;4992000;28;25088;-73
2021/09/19 08:04:50;;;;;;;11.07;9.48;;;15.90;99.90;;;;;;4989361;28;25077;-73
2021/09/19 08:07:17;;;;;;;10.10;9.13;;;16.00;99.90;;;;;;4990872;28;25059;-73
2021/09/19 08:09:44;;;;;;;10.95;9.15;;;16.10;99.90;;;;;;4992275;28;25144;-73
2021/09/19 08:12:09;;;;;;;10.02;8.18;;;16.30;99.90;;;;;;4993494;28;25052;-73
2021/09/19 08:14:35;;;;;;;9.63;7.60;;;16.50;99.90;;;;;;4998886;28;25168;-74
2021/09/19 08:17:01;;;;;;;9.00;8.20;;;16.60;99.90;;;;;;4992000;28;25072;-72
2021/09/19 08:19:27;;;;;;;9.82;8.68;;;16.50;99.90;;;;;;4988777;28;25060;-74
2021/09/19 08:21:54;;;;;;;10.20;8.65;;;16.30;99.90;;;;;;4982510;28;25078;-74
2021/09/19 08:24:20;;;;;;;9.00;7.47;;;16.30;99.90;;;;;;4987652;28;25051;-74
2021/09/19 08:26:46;;;;;;;12.23;8.68;;;16.40;99.90;;;;;;4993112;28;25122;-74
2021/09/19 08:29:13;;;;;;;9.27;8.23;;;16.70;99.90;;;;;;4989474;28;25095;-75
2021/09/19 08:31:39;;;;;;;10.25;8.52;;;17.00;99.90;;;;;;4984101;28;25178;-76
2021/09/19 08:34:06;;;;;;;8.98;8.07;;;17.40;99.90;;;;;;5004786;28;25063;-73
2021/09/19 08:36:33;;;;;;;10.32;7.63;;;17.60;99.90;;;;;;4991979;28;25133;-74
2021/09/19 08:38:58;;;;;;;8.13;7.38;;;18.00;99.90;;;;;;4990614;28;25223;-73
2021/09/19 08:41:24;;;;;;;9.13;7.10;;;18.30;99.90;;;;;;5004557;28;25084;-75
2021/09/19 08:43:52;;;;;;;7.65;6.53;;;18.60;99.90;;;;;;4988634;28;25146;-77
2021/09/19 08:46:20;;;;;;;8.20;7.50;;;18.70;99.90;;;;;;4986149;28;25088;-78
2021/09/19 08:48:47;;;;;;;8.75;6.88;;;18.80;99.90;;;;;;4981066;28;25054;-75
2021/09/19 08:51:13;;;;;;;8.13;6.70;;;19.00;99.90;;;;;;4993761;28;25085;-73
2021/09/19 08:53:40;;;;;;;7.50;6.30;;;18.70;99.90;;;;;;5012158;28;25147;-72
2021/09/19 08:56:07;;;;;;;7.57;6.88;;;18.70;99.90;;;;;;4991966;28;25102;-73
2021/09/19 08:58:33;;;;;;;7.65;6.93;;;18.80;99.90;;;;;;4994430;28;25027;-73
2021/09/19 09:01:01;;;;;;;8.05;7.30;;;18.90;99.90;;;;;;4993156;28;25066;-75
2021/09/19 09:03:29;;;;;;;10.52;7.07;;;19.00;99.90;;;;;;4980086;28;25099;-76
2021/09/19 09:06:03;;;;;;;7.13;6.53;;;19.10;99.90;;;;;;4989653;28;25075;-74
2021/09/19 09:08:31;;;;;;;8.35;7.63;;;19.20;99.90;;;;;;4996208;28;25085;-72
2021/09/19 09:10:59;;;;;;;8.13;7.32;;;19.10;99.90;;;;;;4983089;28;25170;-74
2021/09/19 09:13:42;;;;;;;8.25;7.28;;;19.10;99.90;;;;;;4987731;28;25073;-73
2021/09/19 09:16:17;;;;;;;7.40;6.70;;;18.90;99.90;;;;;;5001661;28;25059;-73
2021/09/19 09:18:52;;;;;;;8.77;7.35;;;18.80;99.90;;;;;;4995508;28;25066;-75
2021/09/19 09:21:23;;;;;;;12.57;8.05;;;19.00;99.90;;;;;;4996839;28;25016;-74
2021/09/19 09:23:53;;;;;;;9.65;7.65;;;18.40;99.90;;;;;;4994938;28;25094;-75
2021/09/19 09:26:34;;;;;;;8.32;7.60;;;18.20;99.90;;;;;;4990362;28;25059;-74
2021/09/19 09:29:10;;;;;;;8.98;7.65;;;18.20;99.90;;;;;;4992116;28;25100;-75
2021/09/19 09:31:42;;;;;;;9.90;7.57;;;18.50;99.90;;;;;;5006114;28;25109;-75
2021/09/19 09:34:09;;;;;;;8.82;7.57;;;18.60;99.90;;;;;;4992610;28;25075;-73
2021/09/19 09:36:46;;;;;;;10.32;7.82;;;18.70;99.90;;;;;;4996771;28;25064;-75
2021/09/19 09:39:33;;;;;;;8.75;7.85;;;18.70;99.90;;;;;;4991876;28;25185;-75
2021/09/19 09:42:05;;;;;;;9.25;7.45;;;18.40;99.90;;;;;;4988186;28;25059;-74
2021/09/19 09:44:36;;;;;;;;;;;18.30;99.90;;;;;;4988795;28;25087;-75
2021/09/19 09:47:04;;;;;;;8.13;7.32;;;18.30;99.90;;;;;;4990458;28;25048;-75
2021/09/19 09:49:39;;;;;;;9.65;7.95;;;18.40;99.90;;;;;;4986616;28;25070;-74
2021/09/19 09:52:11;;;;;;;8.00;7.20;;;18.40;99.90;;;;;;4995450;28;25055;-74
2021/09/19 09:54:47;;;;;;;10.25;6.75;;;18.60;99.90;;;;;;4991896;28;25070;-73
2021/09/19 09:57:23;;;;;;;7.43;6.72;;;18.70;99.90;;;;;;4991887;28;25060;-73
2021/09/19 09:59:50;;;;;;;7.97;6.80;;;18.90;99.90;;;;;;5004850;28;25078;-74
2021/09/19 10:02:16;;;;;;;8.20;6.70;;;18.80;99.90;;;;;;4988619;28;25066;-74
2021/09/19 10:04:42;;;;;;;7.95;7.25;;;18.70;99.90;;;;;;4992891;28;25101;-73
2021/09/19 10:07:09;;;;;;;8.60;7.75;;;18.80;99.90;;;;;;4995465;28;25044;-74
2021/09/19 10:09:47;;;;;;;10.75;6.43;;;18.60;99.90;;;;;;5011409;28;25076;-74
2021/09/19 10:12:21;;;;;;;9.90;6.50;;;18.40;99.90;;;;;;5009810;28;25090;-75
2021/09/19 10:14:53;;;;;;;9.10;6.30;;;18.70;99.90;;;;;;5006845;28;25068;-74
2021/09/19 10:17:20;;;;;;;7.53;6.55;;;18.80;99.90;;;;;;4984945;28;25055;-72
2021/09/19 10:19:47;;;;;;;7.82;6.95;;;19.00;99.90;;;;;;4998811;28;25143;-72
2021/09/19 10:22:40;;;;;;;7.70;6.85;;;18.80;99.90;;;;;;4987114;28;25060;-73
2021/09/19 10:25:06;;;;;;;7.22;6.03;;;19.00;99.90;;;;;;5006050;28;25059;-72
2021/09/19 10:27:33;;;;;;;8.15;6.28;;;19.20;99.90;;;;;;4974457;28;25057;-74
2021/09/19 10:30:06;;;;;;;8.23;6.80;;;19.50;99.90;;;;;;4992050;28;25149;-72
2021/09/19 10:32:39;;;;;;;8.18;6.50;;;19.40;99.90;;;;;;4994350;28;25055;-74
2021/09/19 10:35:17;;;;;;;7.13;6.28;;;19.30;99.90;;;;;;4988718;28;25081;-73
2021/09/19 10:37:53;;;;;;;7.05;6.35;;;19.10;99.90;;;;;;4997124;28;25083;-75
2021/09/19 10:40:37;;;;;;;13.27;7.07;;;19.30;99.90;;;;;;4990348;28;25062;-71
2021/09/19 10:43:15;;;;;;;8.13;7.32;;;19.60;99.90;;;;;;4986907;28;25064;-72
2021/09/19 10:45:43;;;;;;;7.93;7.13;;;19.50;99.90;;;;;;4989535;28;25057;-74
2021/09/19 10:48:31;;;;;;;8.13;6.80;;;19.30;99.90;;;;;;4991960;28;25071;-73
2021/09/19 10:51:05;;;;;;;7.88;6.78;;;19.40;99.90;;;;;;4989623;28;25083;-73
2021/09/19 10:53:30;;;;;;;6.97;6.38;;;19.70;99.90;;;;;;4992007;28;25102;-73
2021/09/19 10:56:04;;;;;;;6.32;5.60;;;19.60;99.90;;;;;;5008931;28;25093;-73
2021/09/19 10:58:37;;;;;;;6.68;6.03;;;19.70;99.90;;;;;;5004411;28;25115;-74
2021/09/19 11:01:18;;;;;;;7.40;6.00;;;19.90;99.90;;;;;;4990921;28;25050;-72
2021/09/19 11:03:45;;;;;;;7.13;6.07;;;20.10;99.90;;;;;;5004329;28;25102;-73
2021/09/19 11:06:28;;;;;;;8.93;6.00;;;20.40;99.90;;;;;;4997913;28;25111;-74
2021/09/19 11:08:54;;;;;;;7.30;5.97;;;20.40;99.90;;;;;;4979267;28;25071;-73
2021/09/19 11:11:23;;;;;;;7.28;5.63;;;20.70;99.90;;;;;;4989953;28;25076;-71
2021/09/19 11:13:55;;;;;;;7.00;6.25;;;20.40;99.90;;;;;;4990734;28;25061;-72
2021/09/19 11:16:26;;;;;;;;;;;20.30;99.90;;;;;;4992360;28;25069;-73
2021/09/19 11:18:54;;;;;;;9.00;6.75;;;20.20;99.90;;;;;;4997418;28;24091;-72
2021/09/19 11:21:20;;;;;;;8.98;7.38;;;20.60;99.90;;;;;;4987536;28;25137;-71
2021/09/19 11:23:49;;;;;;;6.72;6.05;;;20.30;99.90;;;;;;5008601;28;25086;-71
2021/09/19 11:26:16;;;;;;;9.50;6.88;;;20.50;99.90;;;;;;4997219;28;25131;-71
2021/09/19 11:28:42;;;;;;;8.15;6.68;;;20.70;99.90;;;;;;4996019;28;25181;-71
2021/09/19 11:31:08;;;;;;;7.15;5.95;;;21.00;99.90;;;;;;4997143;28;25146;-71
2021/09/19 11:33:35;;;;;;;8.38;6.50;;;21.30;99.90;;;;;;4990089;28;25100;-73
2021/09/19 11:36:09;;;;;;;9.00;6.22;;;21.60;99.90;;;;;;4987241;28;25067;-71
2021/09/19 11:38:40;;;;;;;6.45;5.85;;;21.60;99.90;;;;;;4986518;28;25113;-72
2021/09/19 11:41:07;;;;;;;8.45;6.80;;;21.80;99.90;;;;;;4984107;28;25084;-70
2021/09/19 11:43:34;;;;;;;7.60;6.10;;;21.80;99.90;;;;;;4990039;28;25063;-72
2021/09/19 11:46:01;;;;;;;6.90;6.15;;;22.00;99.90;;;;;;4989656;28;25176;-71
2021/09/19 11:48:29;;;;;;;7.38;6.40;;;22.20;99.90;;;;;;4993044;28;25136;-73
2021/09/19 11:50:54;;;;;;;8.40;5.70;;;22.60;99.90;;;;;;4990109;28;25089;-74
2021/09/19 11:53:20;;;;;;;7.43;6.07;;;23.30;99.90;;;;;;4991989;28;25091;-72
2021/09/19 11:55:46;;;;;;;6.82;6.22;;;23.80;99.90;;;;;;4995181;28;25093;-74
2021/09/19 11:58:16;;;;;;;9.27;7.78;;;23.30;99.90;;;;;;4992891;28;25138;-72
2021/09/19 12:00:45;;;;;;;9.30;6.63;;;23.00;99.90;;;;;;4990489;28;25055;-74
2021/09/19 12:03:11;;;;;;;7.22;6.53;;;23.40;99.90;;;;;;4992597;28;25070;-71
2021/09/19 12:05:37;;;;;;;8.13;6.07;;;23.30;99.90;;;;;;4985801;28;25069;-74
2021/09/19 12:08:03;;;;;;;6.15;5.55;;;23.20;99.90;;;;;;4981101;28;25090;-71
2021/09/19 12:10:29;;;;;;;7.32;5.68;;;23.50;99.90;;;;;;4989787;28;25066;-74
2021/09/19 12:12:55;;;;;;;6.88;6.18;;;23.90;99.90;;;;;;4992278;28;25132;-72
2021/09/19 12:15:27;;;;;;;7.25;6.50;;;24.00;99.90;;;;;;4985576;28;25119;-70
2021/09/19 12:18:06;;;;;;;6.60;5.90;;;24.20;99.90;;;;;;4977371;28;25069;-69
2021/09/19 12:20:33;;;;;;;8.68;6.93;;;24.20;99.90;;;;;;4972887;28;25120;-71
2021/09/19 12:23:20;;;;;;;7.32;6.55;;;23.70;99.90;;;;;;4977621;28;25116;-71
2021/09/19 12:25:50;;;;;;;6.80;6.10;;;23.40;99.90;;;;;;4987474;28;25103;-69
2021/09/19 12:28:33;;;;;;;7.22;6.53;;;23.50;99.90;;;;;;4983108;28;25084;-72
2021/09/19 12:31:00;;;;;;;6.32;5.72;;;23.30;99.90;;;;;;4987776;28;25104;-70
2021/09/19 12:33:26;;;;;;;7.93;6.57;;;23.30;99.90;;;;;;4988462;28;25066;-73
2021/09/19 12:35:52;;;;;;;6.65;5.95;;;23.20;99.90;;;;;;4980831;28;25064;-72